sensor_id;sensor_type;location;lat;lon;timestamp;temperature;humidity
13052;DHT22;6592;47.484;9.726;2023-05-07T00:01:14;15.50;99.90
13052;DHT22;6592;47.484;9.726;2023-05-07T00:03:44;15.50;99.90
13052;DHT22;6592;47.484;9.726;2023-05-07T00:06:14;15.50;99.90
13052;DHT22;6592;47.484;9.726;2023-05-07T00:08:42;15.50;99.90
13052;DHT22;6592;47.484;9.726;2023-05-07T00:11:11;15.50;99.90
13052;DHT22;6592;47.484;9.726;2023-05-07T00:13:39;15.50;99.90
13052;DHT22;6592;47.484;9.726;2023-05-07T00:16:07;15.50;99.90
13052;DHT22;6592;47.484;9.726;2023-05-07T00:18:35;15.70;99.90
13052;DHT22;6592;47.484;9.726;2023-05-07T00:21:04;15.50;99.90
13052;DHT22;6592;47.484;9.726;2023-05-07T00:23:33;15.60;99.90
13052;DHT22;6592;47.484;9.726;2023-05-07T00:26:02;15.50;99.90
13052;DHT22;6592;47.484;9.726;2023-05-07T00:28:30;15.40;99.90
13052;DHT22;6592;47.484;9.726;2023-05-07T00:30:59;15.40;99.90
13052;DHT22;6592;47.484;9.726;2023-05-07T00:33:27;15.30;99.90
13052;DHT22;6592;47.484;9.726;2023-05-07T00:35:55;15.30;99.90
13052;DHT22;6592;47.484;9.726;2023-05-07T00:38:23;15.30;99.90
13052;DHT22;6592;47.484;9.726;2023-05-07T00:40:53;15.30;99.90
13052;DHT22;6592;47.484;9.726;2023-05-07T00:43:21;15.30;99.90
13052;DHT22;6592;47.484;9.726;2023-05-07T00:45:49;15.20;99.90
13052;DHT22;6592;47.484;9.726;2023-05-07T00:48:18;15.30;99.90
13052;DHT22;6592;47.484;9.726;2023-05-07T00:50:46;15.30;99.90
13052;DHT22;6592;47.484;9.726;2023-05-07T00:53:15;15.30;99.90
13052;DHT22;6592;47.484;9.726;2023-05-07T00:55:43;15.20;99.90
13052;DHT22;6592;47.484;9.726;2023-05-07T00:58:13;15.00;99.90
13052;DHT22;6592;47.484;9.726;2023-05-07T01:00:41;14.90;99.90
13052;DHT22;6592;47.484;9.726;2023-05-07T01:03:09;14.90;99.90
13052;DHT22;6592;47.484;9.726;2023-05-07T01:05:38;14.80;99.90
13052;DHT22;6592;47.484;9.726;2023-05-07T01:08:07;14.80;99.90
13052;DHT22;6592;47.484;9.726;2023-05-07T01:10:35;14.80;99.90
13052;DHT22;6592;47.484;9.726;2023-05-07T01:13:04;14.70;99.90
13052;DHT22;6592;47.484;9.726;2023-05-07T01:15:34;14.80;99.90
13052;DHT22;6592;47.484;9.726;2023-05-07T01:18:02;14.70;99.90
13052;DHT22;6592;47.484;9.726;2023-05-07T01:20:30;14.70;99.90
13052;DHT22;6592;47.484;9.726;2023-05-07T01:23:00;14.80;99.90
13052;DHT22;6592;47.484;9.726;2023-05-07T01:25:29;14.70;99.90
13052;DHT22;6592;47.484;9.726;2023-05-07T01:27:57;14.70;99.90
13052;DHT22;6592;47.484;9.726;2023-05-07T01:30:28;14.80;99.90
13052;DHT22;6592;47.484;9.726;2023-05-07T01:33:00;14.80;99.90
13052;DHT22;6592;47.484;9.726;2023-05-07T01:35:33;14.80;99.90
13052;DHT22;6592;47.484;9.726;2023-05-07T01:38:03;14.70;99.90
13052;DHT22;6592;47.484;9.726;2023-05-07T01:40:34;14.70;99.90
13052;DHT22;6592;47.484;9.726;2023-05-07T01:43:02;14.60;99.90
13052;DHT22;6592;47.484;9.726;2023-05-07T01:45:31;14.60;99.90
13052;DHT22;6592;47.484;9.726;2023-05-07T01:47:59;14.60;99.90
13052;DHT22;6592;47.484;9.726;2023-05-07T01:50:29;14.70;99.90
13052;DHT22;6592;47.484;9.726;2023-05-07T01:52:57;14.70;99.90
13052;DHT22;6592;47.484;9.726;2023-05-07T01:55:27;14.80;99.90
13052;DHT22;6592;47.484;9.726;2023-05-07T01:57:55;14.80;99.90
13052;DHT22;6592;47.484;9.726;2023-05-07T02:00:24;14.80;99.90
13052;DHT22;6592;47.484;9.726;2023-05-07T02:02:53;14.80;99.90
13052;DHT22;6592;47.484;9.726;2023-05-07T02:05:21;14.80;99.90
13052;DHT22;6592;47.484;9.726;2023-05-07T02:07:49;14.70;99.90
13052;DHT22;6592;47.484;9.726;2023-05-07T02:10:18;14.70;99.90
13052;DHT22;6592;47.484;9.726;2023-05-07T02:12:47;14.60;99.90
13052;DHT22;6592;47.484;9.726;2023-05-07T02:15:15;14.60;99.90
13052;DHT22;6592;47.484;9.726;2023-05-07T02:17:58;14.60;99.90
13052;DHT22;6592;47.484;9.726;2023-05-07T02:20:27;14.60;99.90
13052;DHT22;6592;47.484;9.726;2023-05-07T02:22:55;14.60;99.90
13052;DHT22;6592;47.484;9.726;2023-05-07T02:25:24;14.50;99.90
13052;DHT22;6592;47.484;9.726;2023-05-07T02:27:53;14.50;99.90
13052;DHT22;6592;47.484;9.726;2023-05-07T02:30:21;14.50;99.90
13052;DHT22;6592;47.484;9.726;2023-05-07T02:32:50;14.60;99.90
13052;DHT22;6592;47.484;9.726;2023-05-07T02:35:18;14.60;99.90
13052;DHT22;6592;47.484;9.726;2023-05-07T02:37:47;14.60;99.90
13052;DHT22;6592;47.484;9.726;2023-05-07T02:40:15;14.60;99.90
13052;DHT22;6592;47.484;9.726;2023-05-07T02:42:43;14.60;99.90
13052;DHT22;6592;47.484;9.726;2023-05-07T02:45:12;14.60;99.90
13052;DHT22;6592;47.484;9.726;2023-05-07T02:47:41;14.60;99.90
13052;DHT22;6592;47.484;9.726;2023-05-07T02:50:10;14.50;99.90
13052;DHT22;6592;47.484;9.726;2023-05-07T02:52:39;14.50;99.90
13052;DHT22;6592;47.484;9.726;2023-05-07T02:55:08;14.40;99.90
13052;DHT22;6592;47.484;9.726;2023-05-07T02:57:36;14.40;99.90
13052;DHT22;6592;47.484;9.726;2023-05-07T03:00:13;14.30;99.90
13052;DHT22;6592;47.484;9.726;2023-05-07T03:02:42;14.20;99.90
13052;DHT22;6592;47.484;9.726;2023-05-07T03:05:10;14.10;99.90
13052;DHT22;6592;47.484;9.726;2023-05-07T03:07:39;14.10;99.90
13052;DHT22;6592;47.484;9.726;2023-05-07T03:10:08;14.00;99.90
13052;DHT22;6592;47.484;9.726;2023-05-07T03:12:37;13.90;99.90
13052;DHT22;6592;47.484;9.726;2023-05-07T03:15:06;13.90;99.90
13052;DHT22;6592;47.484;9.726;2023-05-07T03:17:36;13.90;99.90
13052;DHT22;6592;47.484;9.726;2023-05-07T03:20:05;13.80;99.90
13052;DHT22;6592;47.484;9.726;2023-05-07T03:22:34;13.80;99.90
13052;DHT22;6592;47.484;9.726;2023-05-07T03:25:02;13.70;99.90
13052;DHT22;6592;47.484;9.726;2023-05-07T03:27:31;13.70;99.90
13052;DHT22;6592;47.484;9.726;2023-05-07T03:29:59;13.80;99.90
13052;DHT22;6592;47.484;9.726;2023-05-07T03:32:27;13.90;99.90
13052;DHT22;6592;47.484;9.726;2023-05-07T03:34:57;13.80;99.90
13052;DHT22;6592;47.484;9.726;2023-05-07T03:37:25;13.80;99.90
13052;DHT22;6592;47.484;9.726;2023-05-07T03:39:53;13.70;99.90
13052;DHT22;6592;47.484;9.726;2023-05-07T03:42:22;13.70;99.90
13052;DHT22;6592;47.484;9.726;2023-05-07T03:44:50;13.70;99.90
13052;DHT22;6592;47.484;9.726;2023-05-07T03:47:18;13.60;99.90
13052;DHT22;6592;47.484;9.726;2023-05-07T03:49:46;13.60;99.90
13052;DHT22;6592;47.484;9.726;2023-05-07T03:52:17;13.60;99.90
13052;DHT22;6592;47.484;9.726;2023-05-07T03:54:49;13.60;99.90
13052;DHT22;6592;47.484;9.726;2023-05-07T03:57:17;13.60;99.90
13052;DHT22;6592;47.484;9.726;2023-05-07T03:59:45;13.50;99.90
13052;DHT22;6592;47.484;9.726;2023-05-07T04:02:13;13.40;99.90
13052;DHT22;6592;47.484;9.726;2023-05-07T04:04:41;13.40;99.90
13052;DHT22;6592;47.484;9.726;2023-05-07T04:07:09;13.40;99.90
13052;DHT22;6592;47.484;9.726;2023-05-07T04:09:39;13.30;99.90
13052;DHT22;6592;47.484;9.726;2023-05-07T04:12:07;13.30;99.90
13052;DHT22;6592;47.484;9.726;2023-05-07T04:14:35;13.30;99.90
13052;DHT22;6592;47.484;9.726;2023-05-07T04:17:03;13.20;99.90
13052;DHT22;6592;47.484;9.726;2023-05-07T04:19:33;13.20;99.90
13052;DHT22;6592;47.484;9.726;2023-05-07T04:22:01;13.20;99.90
13052;DHT22;6592;47.484;9.726;2023-05-07T04:24:31;13.30;99.90
13052;DHT22;6592;47.484;9.726;2023-05-07T04:27:01;13.30;99.90
13052;DHT22;6592;47.484;9.726;2023-05-07T04:29:29;13.30;99.90
13052;DHT22;6592;47.484;9.726;2023-05-07T04:31:57;13.30;99.90
13052;DHT22;6592;47.484;9.726;2023-05-07T04:34:26;13.30;99.90
13052;DHT22;6592;47.484;9.726;2023-05-07T04:36:54;13.30;99.90
13052;DHT22;6592;47.484;9.726;2023-05-07T04:39:25;13.30;99.90
13052;DHT22;6592;47.484;9.726;2023-05-07T04:41:53;13.30;99.90
13052;DHT22;6592;47.484;9.726;2023-05-07T04:44:23;13.40;99.90
13052;DHT22;6592;47.484;9.726;2023-05-07T04:46:51;13.40;99.90
13052;DHT22;6592;47.484;9.726;2023-05-07T04:49:19;13.50;99.90
13052;DHT22;6592;47.484;9.726;2023-05-07T04:51:48;13.50;99.90
13052;DHT22;6592;47.484;9.726;2023-05-07T04:54:16;13.60;99.90
13052;DHT22;6592;47.484;9.726;2023-05-07T04:56:44;13.60;99.90
13052;DHT22;6592;47.484;9.726;2023-05-07T04:59:12;13.60;99.90
13052;DHT22;6592;47.484;9.726;2023-05-07T05:01:42;13.60;99.90
13052;DHT22;6592;47.484;9.726;2023-05-07T05:04:10;13.60;99.90
13052;DHT22;6592;47.484;9.726;2023-05-07T05:06:38;13.70;99.90
13052;DHT22;6592;47.484;9.726;2023-05-07T05:09:06;13.80;99.90
13052;DHT22;6592;47.484;9.726;2023-05-07T05:11:35;13.80;99.90
13052;DHT22;6592;47.484;9.726;2023-05-07T05:14:03;14.00;99.90
13052;DHT22;6592;47.484;9.726;2023-05-07T05:16:31;14.10;99.90
13052;DHT22;6592;47.484;9.726;2023-05-07T05:19:02;14.20;99.90
13052;DHT22;6592;47.484;9.726;2023-05-07T05:21:31;14.30;99.90
13052;DHT22;6592;47.484;9.726;2023-05-07T05:23:59;14.50;99.90
13052;DHT22;6592;47.484;9.726;2023-05-07T05:26:27;14.60;99.90
13052;DHT22;6592;47.484;9.726;2023-05-07T05:28:55;14.70;99.90
13052;DHT22;6592;47.484;9.726;2023-05-07T05:31:23;14.80;99.90
13052;DHT22;6592;47.484;9.726;2023-05-07T05:33:52;14.90;99.90
13052;DHT22;6592;47.484;9.726;2023-05-07T05:36:21;15.00;99.90
13052;DHT22;6592;47.484;9.726;2023-05-07T05:38:50;15.20;99.90
13052;DHT22;6592;47.484;9.726;2023-05-07T05:41:18;15.30;99.90
13052;DHT22;6592;47.484;9.726;2023-05-07T05:43:47;15.60;99.90
13052;DHT22;6592;47.484;9.726;2023-05-07T05:46:15;16.10;99.90
13052;DHT22;6592;47.484;9.726;2023-05-07T05:48:43;16.50;99.90
13052;DHT22;6592;47.484;9.726;2023-05-07T05:51:12;16.70;99.90
13052;DHT22;6592;47.484;9.726;2023-05-07T05:53:41;16.80;99.90
13052;DHT22;6592;47.484;9.726;2023-05-07T05:56:09;16.70;99.90
13052;DHT22;6592;47.484;9.726;2023-05-07T05:58:38;17.00;99.90
13052;DHT22;6592;47.484;9.726;2023-05-07T06:01:06;17.30;99.90
13052;DHT22;6592;47.484;9.726;2023-05-07T06:03:34;17.60;99.90
13052;DHT22;6592;47.484;9.726;2023-05-07T06:06:02;17.90;99.90
13052;DHT22;6592;47.484;9.726;2023-05-07T06:08:31;18.10;99.90
13052;DHT22;6592;47.484;9.726;2023-05-07T06:11:01;18.10;99.90
13052;DHT22;6592;47.484;9.726;2023-05-07T06:13:30;18.30;99.90
13052;DHT22;6592;47.484;9.726;2023-05-07T06:15:58;18.40;99.90
13052;DHT22;6592;47.484;9.726;2023-05-07T06:18:26;18.80;99.90
13052;DHT22;6592;47.484;9.726;2023-05-07T06:20:54;18.90;99.90
13052;DHT22;6592;47.484;9.726;2023-05-07T06:23:22;18.90;99.90
13052;DHT22;6592;47.484;9.726;2023-05-07T06:25:51;18.70;99.90
13052;DHT22;6592;47.484;9.726;2023-05-07T06:28:20;18.60;99.90
13052;DHT22;6592;47.484;9.726;2023-05-07T06:30:49;18.70;99.90
13052;DHT22;6592;47.484;9.726;2023-05-07T06:33:17;18.90;99.90
13052;DHT22;6592;47.484;9.726;2023-05-07T06:35:46;19.20;99.90
13052;DHT22;6592;47.484;9.726;2023-05-07T06:38:14;19.40;99.90
13052;DHT22;6592;47.484;9.726;2023-05-07T06:40:44;19.90;99.90
13052;DHT22;6592;47.484;9.726;2023-05-07T06:43:15;20.50;99.90
13052;DHT22;6592;47.484;9.726;2023-05-07T06:45:45;20.90;99.90
13052;DHT22;6592;47.484;9.726;2023-05-07T06:48:13;21.10;99.90
13052;DHT22;6592;47.484;9.726;2023-05-07T06:50:42;21.30;99.90
13052;DHT22;6592;47.484;9.726;2023-05-07T06:53:10;21.60;99.90
13052;DHT22;6592;47.484;9.726;2023-05-07T06:55:38;22.10;99.90
13052;DHT22;6592;47.484;9.726;2023-05-07T06:58:06;22.00;99.90
13052;DHT22;6592;47.484;9.726;2023-05-07T07:00:34;22.20;99.90
13052;DHT22;6592;47.484;9.726;2023-05-07T07:03:04;22.30;99.90
13052;DHT22;6592;47.484;9.726;2023-05-07T07:05:32;22.50;99.90
13052;DHT22;6592;47.484;9.726;2023-05-07T07:08:00;22.40;99.90
13052;DHT22;6592;47.484;9.726;2023-05-07T07:10:29;22.40;99.90
13052;DHT22;6592;47.484;9.726;2023-05-07T07:12:57;22.60;99.90
13052;DHT22;6592;47.484;9.726;2023-05-07T07:15:26;23.00;99.90
13052;DHT22;6592;47.484;9.726;2023-05-07T07:17:54;23.40;99.90
13052;DHT22;6592;47.484;9.726;2023-05-07T07:20:24;23.80;99.90
13052;DHT22;6592;47.484;9.726;2023-05-07T07:22:52;24.20;99.90
13052;DHT22;6592;47.484;9.726;2023-05-07T07:25:20;24.70;99.90
13052;DHT22;6592;47.484;9.726;2023-05-07T07:27:49;24.90;99.90
13052;DHT22;6592;47.484;9.726;2023-05-07T07:30:17;25.30;99.90
13052;DHT22;6592;47.484;9.726;2023-05-07T07:32:45;25.20;99.90
13052;DHT22;6592;47.484;9.726;2023-05-07T07:35:13;25.20;99.90
13052;DHT22;6592;47.484;9.726;2023-05-07T07:37:43;25.40;99.90
13052;DHT22;6592;47.484;9.726;2023-05-07T07:40:12;25.60;99.90
13052;DHT22;6592;47.484;9.726;2023-05-07T07:42:40;26.00;99.90
13052;DHT22;6592;47.484;9.726;2023-05-07T07:45:09;25.90;99.90
13052;DHT22;6592;47.484;9.726;2023-05-07T07:47:37;25.70;99.90
13052;DHT22;6592;47.484;9.726;2023-05-07T07:50:06;25.50;99.90
13052;DHT22;6592;47.484;9.726;2023-05-07T07:52:35;25.10;99.90
13052;DHT22;6592;47.484;9.726;2023-05-07T07:55:06;24.90;99.90
13052;DHT22;6592;47.484;9.726;2023-05-07T07:57:34;25.00;99.90
13052;DHT22;6592;47.484;9.726;2023-05-07T08:00:03;24.60;99.90
13052;DHT22;6592;47.484;9.726;2023-05-07T08:02:34;24.00;99.90
13052;DHT22;6592;47.484;9.726;2023-05-07T08:05:02;23.50;99.90
13052;DHT22;6592;47.484;9.726;2023-05-07T08:07:30;23.10;99.90
13052;DHT22;6592;47.484;9.726;2023-05-07T08:09:59;23.00;99.90
13052;DHT22;6592;47.484;9.726;2023-05-07T08:12:28;23.30;99.90
13052;DHT22;6592;47.484;9.726;2023-05-07T08:14:56;23.00;99.90
13052;DHT22;6592;47.484;9.726;2023-05-07T08:17:25;23.30;99.90
13052;DHT22;6592;47.484;9.726;2023-05-07T08:19:53;23.50;99.90
13052;DHT22;6592;47.484;9.726;2023-05-07T08:22:21;23.30;99.90
13052;DHT22;6592;47.484;9.726;2023-05-07T08:24:49;24.00;99.90
13052;DHT22;6592;47.484;9.726;2023-05-07T08:27:18;24.90;99.90
13052;DHT22;6592;47.484;9.726;2023-05-07T08:29:47;25.90;99.90
13052;DHT22;6592;47.484;9.726;2023-05-07T08:32:16;25.70;99.90
13052;DHT22;6592;47.484;9.726;2023-05-07T08:34:44;25.80;99.90
13052;DHT22;6592;47.484;9.726;2023-05-07T08:37:13;26.20;99.90
13052;DHT22;6592;47.484;9.726;2023-05-07T08:39:41;26.20;99.90
13052;DHT22;6592;47.484;9.726;2023-05-07T08:42:09;26.10;99.90
13052;DHT22;6592;47.484;9.726;2023-05-07T08:44:39;25.80;99.90
13052;DHT22;6592;47.484;9.726;2023-05-07T08:47:10;25.50;99.90
13052;DHT22;6592;47.484;9.726;2023-05-07T08:49:38;25.40;99.90
13052;DHT22;6592;47.484;9.726;2023-05-07T08:52:06;25.50;99.90
13052;DHT22;6592;47.484;9.726;2023-05-07T08:54:37;26.00;99.90
13052;DHT22;6592;47.484;9.726;2023-05-07T08:57:05;26.80;99.90
13052;DHT22;6592;47.484;9.726;2023-05-07T08:59:33;27.60;99.90
13052;DHT22;6592;47.484;9.726;2023-05-07T09:02:04;27.90;99.90
13052;DHT22;6592;47.484;9.726;2023-05-07T09:04:37;28.70;99.90
13052;DHT22;6592;47.484;9.726;2023-05-07T09:07:05;29.50;99.90
13052;DHT22;6592;47.484;9.726;2023-05-07T09:09:33;30.00;99.90
13052;DHT22;6592;47.484;9.726;2023-05-07T09:12:01;30.40;99.90
13052;DHT22;6592;47.484;9.726;2023-05-07T09:14:30;30.80;99.80
13052;DHT22;6592;47.484;9.726;2023-05-07T09:16:59;31.20;99.10
13052;DHT22;6592;47.484;9.726;2023-05-07T09:19:27;31.20;98.50
13052;DHT22;6592;47.484;9.726;2023-05-07T09:22:00;31.40;95.60
13052;DHT22;6592;47.484;9.726;2023-05-07T09:24:29;31.50;97.10
13052;DHT22;6592;47.484;9.726;2023-05-07T09:27:01;31.80;95.60
13052;DHT22;6592;47.484;9.726;2023-05-07T09:29:30;32.30;95.20
13052;DHT22;6592;47.484;9.726;2023-05-07T09:32:02;32.60;93.20
13052;DHT22;6592;47.484;9.726;2023-05-07T09:34:31;33.00;92.80
13052;DHT22;6592;47.484;9.726;2023-05-07T09:37:01;33.10;92.60
13052;DHT22;6592;47.484;9.726;2023-05-07T09:39:39;33.40;90.60
13052;DHT22;6592;47.484;9.726;2023-05-07T09:42:07;33.20;89.80
13052;DHT22;6592;47.484;9.726;2023-05-07T09:44:36;33.20;90.40
13052;DHT22;6592;47.484;9.726;2023-05-07T09:47:05;33.30;90.20
13052;DHT22;6592;47.484;9.726;2023-05-07T09:49:35;33.50;86.50
13052;DHT22;6592;47.484;9.726;2023-05-07T09:52:06;33.60;85.00
13052;DHT22;6592;47.484;9.726;2023-05-07T09:54:36;33.70;87.60
13052;DHT22;6592;47.484;9.726;2023-05-07T09:57:05;33.60;86.00
13052;DHT22;6592;47.484;9.726;2023-05-07T09:59:36;33.60;86.30
13052;DHT22;6592;47.484;9.726;2023-05-07T10:02:05;33.50;83.10
13052;DHT22;6592;47.484;9.726;2023-05-07T10:04:34;33.60;84.50
13052;DHT22;6592;47.484;9.726;2023-05-07T10:07:04;33.60;83.60
13052;DHT22;6592;47.484;9.726;2023-05-07T10:09:33;33.60;78.30
13052;DHT22;6592;47.484;9.726;2023-05-07T10:12:05;33.70;79.80
13052;DHT22;6592;47.484;9.726;2023-05-07T10:14:34;33.80;81.10
13052;DHT22;6592;47.484;9.726;2023-05-07T10:17:02;34.00;80.80
13052;DHT22;6592;47.484;9.726;2023-05-07T10:19:32;34.10;80.60
13052;DHT22;6592;47.484;9.726;2023-05-07T10:22:04;34.60;79.10
13052;DHT22;6592;47.484;9.726;2023-05-07T10:24:34;34.60;76.70
13052;DHT22;6592;47.484;9.726;2023-05-07T10:27:04;34.80;73.90
13052;DHT22;6592;47.484;9.726;2023-05-07T10:29:39;34.70;70.00
13052;DHT22;6592;47.484;9.726;2023-05-07T10:32:22;35.00;74.50
13052;DHT22;6592;47.484;9.726;2023-05-07T10:34:58;35.40;70.40
13052;DHT22;6592;47.484;9.726;2023-05-07T10:37:30;35.70;69.30
13052;DHT22;6592;47.484;9.726;2023-05-07T10:39:59;35.70;71.30
13052;DHT22;6592;47.484;9.726;2023-05-07T10:42:27;35.90;68.80
13052;DHT22;6592;47.484;9.726;2023-05-07T10:44:55;36.00;69.90
13052;DHT22;6592;47.484;9.726;2023-05-07T10:47:24;36.10;69.50
13052;DHT22;6592;47.484;9.726;2023-05-07T10:50:20;36.10;68.20
13052;DHT22;6592;47.484;9.726;2023-05-07T10:53:24;36.10;66.80
13052;DHT22;6592;47.484;9.726;2023-05-07T10:59:30;36.40;64.90
13052;DHT22;6592;47.484;9.726;2023-05-07T11:01:59;36.70;66.90
13052;DHT22;6592;47.484;9.726;2023-05-07T11:04:29;36.60;65.20
13052;DHT22;6592;47.484;9.726;2023-05-07T11:10:08;36.30;63.00
13052;DHT22;6592;47.484;9.726;2023-05-07T11:12:49;35.90;64.30
13052;DHT22;6592;47.484;9.726;2023-05-07T11:15:36;35.90;61.20
13052;DHT22;6592;47.484;9.726;2023-05-07T11:18:04;36.10;59.80
13052;DHT22;6592;47.484;9.726;2023-05-07T11:20:55;36.00;59.60
13052;DHT22;6592;47.484;9.726;2023-05-07T11:23:55;35.90;60.00
13052;DHT22;6592;47.484;9.726;2023-05-07T11:26:26;35.80;60.50
13052;DHT22;6592;47.484;9.726;2023-05-07T11:28:55;35.60;59.70
13052;DHT22;6592;47.484;9.726;2023-05-07T11:31:25;35.30;58.60
13052;DHT22;6592;47.484;9.726;2023-05-07T11:33:55;34.80;61.60
13052;DHT22;6592;47.484;9.726;2023-05-07T11:36:24;34.80;63.60
13052;DHT22;6592;47.484;9.726;2023-05-07T11:38:52;34.80;64.00
13052;DHT22;6592;47.484;9.726;2023-05-07T11:41:21;35.00;63.10
13052;DHT22;6592;47.484;9.726;2023-05-07T11:43:58;35.20;60.40
13052;DHT22;6592;47.484;9.726;2023-05-07T11:46:27;35.30;61.80
13052;DHT22;6592;47.484;9.726;2023-05-07T11:48:56;35.60;59.30
13052;DHT22;6592;47.484;9.726;2023-05-07T11:51:25;35.90;61.00
13052;DHT22;6592;47.484;9.726;2023-05-07T11:53:56;35.80;57.80
13052;DHT22;6592;47.484;9.726;2023-05-07T11:56:24;35.40;60.00
13052;DHT22;6592;47.484;9.726;2023-05-07T11:58:53;35.60;59.40
13052;DHT22;6592;47.484;9.726;2023-05-07T12:01:23;35.30;58.90
13052;DHT22;6592;47.484;9.726;2023-05-07T12:03:51;35.30;58.20
13052;DHT22;6592;47.484;9.726;2023-05-07T12:06:19;35.10;59.40
13052;DHT22;6592;47.484;9.726;2023-05-07T12:08:47;35.40;58.10
13052;DHT22;6592;47.484;9.726;2023-05-07T12:11:21;35.50;59.40
13052;DHT22;6592;47.484;9.726;2023-05-07T12:13:50;35.90;58.40
13052;DHT22;6592;47.484;9.726;2023-05-07T12:16:19;36.30;60.80
13052;DHT22;6592;47.484;9.726;2023-05-07T12:18:49;36.50;58.10
13052;DHT22;6592;47.484;9.726;2023-05-07T12:21:19;37.00;58.50
13052;DHT22;6592;47.484;9.726;2023-05-07T12:23:48;37.30;57.10
13052;DHT22;6592;47.484;9.726;2023-05-07T12:26:16;37.40;57.40
13052;DHT22;6592;47.484;9.726;2023-05-07T12:28:44;37.30;57.70
13052;DHT22;6592;47.484;9.726;2023-05-07T12:31:14;37.30;59.00
13052;DHT22;6592;47.484;9.726;2023-05-07T12:33:43;37.20;57.50
13052;DHT22;6592;47.484;9.726;2023-05-07T12:36:13;37.20;56.00
13052;DHT22;6592;47.484;9.726;2023-05-07T12:38:41;36.90;57.10
13052;DHT22;6592;47.484;9.726;2023-05-07T12:41:10;36.30;57.70
13052;DHT22;6592;47.484;9.726;2023-05-07T12:43:39;35.90;59.30
13052;DHT22;6592;47.484;9.726;2023-05-07T12:46:07;35.70;61.30
13052;DHT22;6592;47.484;9.726;2023-05-07T12:48:37;35.80;60.90
13052;DHT22;6592;47.484;9.726;2023-05-07T12:51:06;35.70;61.20
13052;DHT22;6592;47.484;9.726;2023-05-07T12:53:41;35.80;62.30
13052;DHT22;6592;47.484;9.726;2023-05-07T12:56:10;35.90;60.40
13052;DHT22;6592;47.484;9.726;2023-05-07T12:58:38;35.90;60.70
13052;DHT22;6592;47.484;9.726;2023-05-07T13:01:07;35.70;61.50
13052;DHT22;6592;47.484;9.726;2023-05-07T13:03:38;35.80;62.60
13052;DHT22;6592;47.484;9.726;2023-05-07T13:06:08;35.70;62.70
13052;DHT22;6592;47.484;9.726;2023-05-07T13:08:41;35.80;60.60
13052;DHT22;6592;47.484;9.726;2023-05-07T13:11:10;35.60;61.70
13052;DHT22;6592;47.484;9.726;2023-05-07T13:13:40;35.20;58.80
13052;DHT22;6592;47.484;9.726;2023-05-07T13:16:09;35.10;57.70
13052;DHT22;6592;47.484;9.726;2023-05-07T13:18:39;34.90;58.60
13052;DHT22;6592;47.484;9.726;2023-05-07T13:21:08;34.90;58.90
13052;DHT22;6592;47.484;9.726;2023-05-07T13:23:37;34.40;58.50
13052;DHT22;6592;47.484;9.726;2023-05-07T13:26:07;34.20;58.30
13052;DHT22;6592;47.484;9.726;2023-05-07T13:28:51;34.00;59.70
13052;DHT22;6592;47.484;9.726;2023-05-07T13:31:20;34.00;59.90
13052;DHT22;6592;47.484;9.726;2023-05-07T13:33:48;33.60;59.00
13052;DHT22;6592;47.484;9.726;2023-05-07T13:36:17;33.20;60.20
13052;DHT22;6592;47.484;9.726;2023-05-07T13:38:45;33.10;62.20
13052;DHT22;6592;47.484;9.726;2023-05-07T13:41:14;32.80;63.90
13052;DHT22;6592;47.484;9.726;2023-05-07T13:43:43;32.40;63.20
13052;DHT22;6592;47.484;9.726;2023-05-07T13:46:11;32.10;63.40
13052;DHT22;6592;47.484;9.726;2023-05-07T13:48:40;31.70;65.20
13052;DHT22;6592;47.484;9.726;2023-05-07T13:51:08;31.50;65.90
13052;DHT22;6592;47.484;9.726;2023-05-07T13:53:37;31.20;66.20
13052;DHT22;6592;47.484;9.726;2023-05-07T13:56:05;30.90;67.00
13052;DHT22;6592;47.484;9.726;2023-05-07T13:58:35;30.70;69.80
13052;DHT22;6592;47.484;9.726;2023-05-07T14:01:11;30.10;68.80
13052;DHT22;6592;47.484;9.726;2023-05-07T14:03:39;29.80;69.00
13052;DHT22;6592;47.484;9.726;2023-05-07T14:06:07;29.30;70.90
13052;DHT22;6592;47.484;9.726;2023-05-07T14:08:36;28.90;72.80
13052;DHT22;6592;47.484;9.726;2023-05-07T14:11:04;28.70;74.50
13052;DHT22;6592;47.484;9.726;2023-05-07T14:13:32;28.40;74.70
13052;DHT22;6592;47.484;9.726;2023-05-07T14:16:04;28.00;74.40
13052;DHT22;6592;47.484;9.726;2023-05-07T14:18:33;27.80;76.10
13052;DHT22;6592;47.484;9.726;2023-05-07T14:21:04;27.70;77.70
13052;DHT22;6592;47.484;9.726;2023-05-07T14:23:34;27.60;77.50
13052;DHT22;6592;47.484;9.726;2023-05-07T14:26:02;27.60;79.20
13052;DHT22;6592;47.484;9.726;2023-05-07T14:28:31;27.50;76.50
13052;DHT22;6592;47.484;9.726;2023-05-07T14:30:59;27.30;77.40
13052;DHT22;6592;47.484;9.726;2023-05-07T14:33:29;26.90;77.30
13052;DHT22;6592;47.484;9.726;2023-05-07T14:35:57;26.80;78.90
13052;DHT22;6592;47.484;9.726;2023-05-07T14:38:25;26.50;78.80
13052;DHT22;6592;47.484;9.726;2023-05-07T14:40:53;26.20;79.80
13052;DHT22;6592;47.484;9.726;2023-05-07T14:43:23;26.00;81.50
13052;DHT22;6592;47.484;9.726;2023-05-07T14:45:51;25.60;83.20
13052;DHT22;6592;47.484;9.726;2023-05-07T14:48:19;25.50;84.40
13052;DHT22;6592;47.484;9.726;2023-05-07T14:50:49;25.30;84.70
13052;DHT22;6592;47.484;9.726;2023-05-07T14:53:17;25.30;85.80
13052;DHT22;6592;47.484;9.726;2023-05-07T14:55:47;25.20;87.50
13052;DHT22;6592;47.484;9.726;2023-05-07T14:58:15;25.10;88.30
13052;DHT22;6592;47.484;9.726;2023-05-07T15:00:43;25.00;88.50
13052;DHT22;6592;47.484;9.726;2023-05-07T15:03:12;24.90;89.80
13052;DHT22;6592;47.484;9.726;2023-05-07T15:05:40;24.70;90.10
13052;DHT22;6592;47.484;9.726;2023-05-07T15:08:10;24.50;90.70
13052;DHT22;6592;47.484;9.726;2023-05-07T15:10:39;24.30;91.00
13052;DHT22;6592;47.484;9.726;2023-05-07T15:13:09;24.10;91.40
13052;DHT22;6592;47.484;9.726;2023-05-07T15:15:42;24.00;91.80
13052;DHT22;6592;47.484;9.726;2023-05-07T15:18:10;23.90;92.00
13052;DHT22;6592;47.484;9.726;2023-05-07T15:20:39;23.70;91.90
13052;DHT22;6592;47.484;9.726;2023-05-07T15:23:08;23.60;92.50
13052;DHT22;6592;47.484;9.726;2023-05-07T15:25:40;23.40;92.90
13052;DHT22;6592;47.484;9.726;2023-05-07T15:28:08;23.30;93.10
13052;DHT22;6592;47.484;9.726;2023-05-07T15:30:37;23.20;93.50
13052;DHT22;6592;47.484;9.726;2023-05-07T15:33:05;23.10;93.60
13052;DHT22;6592;47.484;9.726;2023-05-07T15:35:33;23.00;94.20
13052;DHT22;6592;47.484;9.726;2023-05-07T15:38:02;22.90;94.40
13052;DHT22;6592;47.484;9.726;2023-05-07T15:40:30;22.70;94.70
13052;DHT22;6592;47.484;9.726;2023-05-07T15:43:01;22.60;94.80
13052;DHT22;6592;47.484;9.726;2023-05-07T15:45:29;22.50;96.10
13052;DHT22;6592;47.484;9.726;2023-05-07T15:47:57;22.40;96.40
13052;DHT22;6592;47.484;9.726;2023-05-07T15:50:26;22.30;97.50
13052;DHT22;6592;47.484;9.726;2023-05-07T15:52:55;22.10;97.80
13052;DHT22;6592;47.484;9.726;2023-05-07T15:55:24;22.00;98.00
13052;DHT22;6592;47.484;9.726;2023-05-07T15:57:52;22.00;98.40
13052;DHT22;6592;47.484;9.726;2023-05-07T16:00:25;21.90;99.10
13052;DHT22;6592;47.484;9.726;2023-05-07T16:02:54;21.80;99.60
13052;DHT22;6592;47.484;9.726;2023-05-07T16:05:22;21.70;99.90